sensor_id;sensor_type;location;lat;lon;timestamp;P1;durP1;ratioP1;P2;durP2;ratioP2
68989;SDS011;56046;47.270;11.368;2023-11-21T00:00:42;14.20;;;8.37;;
68989;SDS011;56046;47.270;11.368;2023-11-21T00:03:07;12.47;;;8.30;;
68989;SDS011;56046;47.270;11.368;2023-11-21T00:05:32;15.60;;;8.27;;
68989;SDS011;56046;47.270;11.368;2023-11-21T00:07:57;13.13;;;7.20;;
68989;SDS011;56046;47.270;11.368;2023-11-21T00:10:22;13.50;;;7.43;;
68989;SDS011;56046;47.270;11.368;2023-11-21T00:12:48;13.87;;;7.17;;
68989;SDS011;56046;47.270;11.368;2023-11-21T00:15:13;11.87;;;7.03;;
68989;SDS011;56046;47.270;11.368;2023-11-21T00:17:39;13.57;;;8.97;;
68989;SDS011;56046;47.270;11.368;2023-11-21T00:20:05;13.00;;;7.77;;
68989;SDS011;56046;47.270;11.368;2023-11-21T00:22:34;12.57;;;7.47;;
68989;SDS011;56046;47.270;11.368;2023-11-21T00:25:00;14.55;;;7.47;;
68989;SDS011;56046;47.270;11.368;2023-11-21T00:27:25;13.80;;;8.03;;
68989;SDS011;56046;47.270;11.368;2023-11-21T00:29:50;12.33;;;7.07;;
68989;SDS011;56046;47.270;11.368;2023-11-21T00:32:16;11.77;;;7.00;;
68989;SDS011;56046;47.270;11.368;2023-11-21T00:34:41;13.60;;;7.10;;
68989;SDS011;56046;47.270;11.368;2023-11-21T00:37:07;15.90;;;9.18;;
68989;SDS011;56046;47.270;11.368;2023-11-21T00:39:32;16.87;;;8.70;;
68989;SDS011;56046;47.270;11.368;2023-11-21T00:41:58;14.23;;;8.60;;
68989;SDS011;56046;47.270;11.368;2023-11-21T00:44:23;15.43;;;7.87;;
68989;SDS011;56046;47.270;11.368;2023-11-21T00:46:48;13.83;;;7.97;;
68989;SDS011;56046;47.270;11.368;2023-11-21T00:49:14;12.40;;;7.63;;
68989;SDS011;56046;47.270;11.368;2023-11-21T00:51:39;16.23;;;8.53;;
68989;SDS011;56046;47.270;11.368;2023-11-21T00:54:04;13.20;;;7.93;;
68989;SDS011;56046;47.270;11.368;2023-11-21T00:56:30;13.37;;;6.97;;
68989;SDS011;56046;47.270;11.368;2023-11-21T00:58:55;11.07;;;6.67;;
68989;SDS011;56046;47.270;11.368;2023-11-21T01:01:20;10.03;;;6.47;;
68989;SDS011;56046;47.270;11.368;2023-11-21T01:03:48;12.45;;;6.72;;
68989;SDS011;56046;47.270;11.368;2023-11-21T01:06:13;12.10;;;7.07;;
68989;SDS011;56046;47.270;11.368;2023-11-21T01:08:39;13.45;;;7.47;;
68989;SDS011;56046;47.270;11.368;2023-11-21T01:11:04;13.13;;;6.83;;
68989;SDS011;56046;47.270;11.368;2023-11-21T01:13:32;12.13;;;7.13;;
68989;SDS011;56046;47.270;11.368;2023-11-21T01:15:58;12.23;;;7.63;;
68989;SDS011;56046;47.270;11.368;2023-11-21T01:18:23;11.60;;;7.07;;
68989;SDS011;56046;47.270;11.368;2023-11-21T01:20:50;12.67;;;7.13;;
68989;SDS011;56046;47.270;11.368;2023-11-21T01:23:17;12.38;;;7.00;;
68989;SDS011;56046;47.270;11.368;2023-11-21T01:25:43;12.83;;;7.40;;
68989;SDS011;56046;47.270;11.368;2023-11-21T01:28:08;11.53;;;6.77;;
68989;SDS011;56046;47.270;11.368;2023-11-21T01:30:33;13.10;;;7.00;;
68989;SDS011;56046;47.270;11.368;2023-11-21T01:32:58;14.50;;;7.97;;
68989;SDS011;56046;47.270;11.368;2023-11-21T01:35:24;13.10;;;6.90;;
68989;SDS011;56046;47.270;11.368;2023-11-21T01:37:49;13.63;;;6.97;;
68989;SDS011;56046;47.270;11.368;2023-11-21T01:40:14;15.27;;;7.60;;
68989;SDS011;56046;47.270;11.368;2023-11-21T01:42:40;13.30;;;8.30;;
68989;SDS011;56046;47.270;11.368;2023-11-21T01:45:06;12.88;;;7.53;;
68989;SDS011;56046;47.270;11.368;2023-11-21T01:47:33;13.68;;;7.72;;
68989;SDS011;56046;47.270;11.368;2023-11-21T01:49:58;12.20;;;6.63;;
68989;SDS011;56046;47.270;11.368;2023-11-21T01:52:23;11.00;;;6.40;;
68989;SDS011;56046;47.270;11.368;2023-11-21T01:54:49;13.38;;;6.55;;
68989;SDS011;56046;47.270;11.368;2023-11-21T01:57:15;10.90;;;6.80;;
68989;SDS011;56046;47.270;11.368;2023-11-21T01:59:41;11.70;;;6.63;;
68989;SDS011;56046;47.270;11.368;2023-11-21T02:02:07;11.90;;;6.80;;
68989;SDS011;56046;47.270;11.368;2023-11-21T02:04:32;11.75;;;6.90;;
68989;SDS011;56046;47.270;11.368;2023-11-21T02:06:58;12.00;;;6.60;;
68989;SDS011;56046;47.270;11.368;2023-11-21T02:09:27;12.83;;;7.60;;
68989;SDS011;56046;47.270;11.368;2023-11-21T02:11:52;12.43;;;7.00;;
68989;SDS011;56046;47.270;11.368;2023-11-21T02:14:19;11.00;;;6.40;;
68989;SDS011;56046;47.270;11.368;2023-11-21T02:16:45;11.30;;;6.93;;
68989;SDS011;56046;47.270;11.368;2023-11-21T02:19:12;12.20;;;6.37;;
68989;SDS011;56046;47.270;11.368;2023-11-21T02:21:43;13.23;;;7.47;;
68989;SDS011;56046;47.270;11.368;2023-11-21T02:24:10;11.68;;;7.15;;
68989;SDS011;56046;47.270;11.368;2023-11-21T02:26:35;12.13;;;7.20;;
68989;SDS011;56046;47.270;11.368;2023-11-21T02:29:00;13.50;;;7.33;;
68989;SDS011;56046;47.270;11.368;2023-11-21T02:31:26;11.50;;;7.50;;
68989;SDS011;56046;47.270;11.368;2023-11-21T02:33:52;13.25;;;7.40;;
68989;SDS011;56046;47.270;11.368;2023-11-21T02:36:17;13.20;;;8.25;;
68989;SDS011;56046;47.270;11.368;2023-11-21T02:38:43;12.97;;;7.70;;
68989;SDS011;56046;47.270;11.368;2023-11-21T02:41:08;12.83;;;7.47;;
68989;SDS011;56046;47.270;11.368;2023-11-21T02:43:33;13.87;;;7.93;;
68989;SDS011;56046;47.270;11.368;2023-11-21T02:45:59;13.47;;;7.93;;
68989;SDS011;56046;47.270;11.368;2023-11-21T02:48:24;11.60;;;7.10;;
68989;SDS011;56046;47.270;11.368;2023-11-21T02:50:50;12.95;;;7.40;;
68989;SDS011;56046;47.270;11.368;2023-11-21T02:53:16;13.93;;;7.83;;
68989;SDS011;56046;47.270;11.368;2023-11-21T02:55:41;13.83;;;8.03;;
68989;SDS011;56046;47.270;11.368;2023-11-21T02:58:06;13.33;;;8.10;;
68989;SDS011;56046;47.270;11.368;2023-11-21T03:00:32;14.17;;;7.80;;
68989;SDS011;56046;47.270;11.368;2023-11-21T03:02:57;13.53;;;7.27;;
68989;SDS011;56046;47.270;11.368;2023-11-21T03:05:23;13.70;;;7.40;;
68989;SDS011;56046;47.270;11.368;2023-11-21T03:07:48;13.33;;;7.87;;
68989;SDS011;56046;47.270;11.368;2023-11-21T03:10:13;12.73;;;7.20;;
68989;SDS011;56046;47.270;11.368;2023-11-21T03:12:39;13.43;;;7.20;;
68989;SDS011;56046;47.270;11.368;2023-11-21T03:15:07;13.10;;;7.80;;
68989;SDS011;56046;47.270;11.368;2023-11-21T03:17:33;12.77;;;7.40;;
68989;SDS011;56046;47.270;11.368;2023-11-21T03:20:01;12.65;;;7.65;;
68989;SDS011;56046;47.270;11.368;2023-11-21T03:22:29;15.00;;;7.55;;
68989;SDS011;56046;47.270;11.368;2023-11-21T03:24:54;12.77;;;7.50;;
68989;SDS011;56046;47.270;11.368;2023-11-21T03:27:19;15.07;;;7.53;;
68989;SDS011;56046;47.270;11.368;2023-11-21T03:29:44;15.13;;;8.70;;
68989;SDS011;56046;47.270;11.368;2023-11-21T03:32:11;15.10;;;8.43;;
68989;SDS011;56046;47.270;11.368;2023-11-21T03:34:48;13.13;;;7.22;;
68989;SDS011;56046;47.270;11.368;2023-11-21T03:37:17;16.83;;;8.98;;
68989;SDS011;56046;47.270;11.368;2023-11-21T03:39:43;15.57;;;8.10;;
68989;SDS011;56046;47.270;11.368;2023-11-21T03:42:08;14.90;;;8.37;;
68989;SDS011;56046;47.270;11.368;2023-11-21T03:44:33;14.37;;;8.30;;
68989;SDS011;56046;47.270;11.368;2023-11-21T03:46:58;15.33;;;7.90;;
68989;SDS011;56046;47.270;11.368;2023-11-21T03:49:24;16.10;;;8.13;;
68989;SDS011;56046;47.270;11.368;2023-11-21T03:51:49;13.43;;;7.43;;
68989;SDS011;56046;47.270;11.368;2023-11-21T03:54:14;14.33;;;7.07;;
68989;SDS011;56046;47.270;11.368;2023-11-21T03:56:39;13.03;;;7.20;;
68989;SDS011;56046;47.270;11.368;2023-11-21T03:59:05;13.40;;;6.70;;
68989;SDS011;56046;47.270;11.368;2023-11-21T04:01:30;13.27;;;7.10;;
68989;SDS011;56046;47.270;11.368;2023-11-21T04:03:55;12.63;;;7.43;;
68989;SDS011;56046;47.270;11.368;2023-11-21T04:06:22;14.60;;;7.90;;
68989;SDS011;56046;47.270;11.368;2023-11-21T04:08:47;12.50;;;6.73;;
68989;SDS011;56046;47.270;11.368;2023-11-21T04:11:12;12.47;;;7.07;;
68989;SDS011;56046;47.270;11.368;2023-11-21T04:13:38;14.33;;;7.90;;
68989;SDS011;56046;47.270;11.368;2023-11-21T04:16:04;14.63;;;7.97;;
68989;SDS011;56046;47.270;11.368;2023-11-21T04:18:30;15.60;;;8.50;;
68989;SDS011;56046;47.270;11.368;2023-11-21T04:20:55;17.63;;;8.90;;
68989;SDS011;56046;47.270;11.368;2023-11-21T04:23:20;17.63;;;8.07;;
68989;SDS011;56046;47.270;11.368;2023-11-21T04:25:45;12.90;;;7.47;;
68989;SDS011;56046;47.270;11.368;2023-11-21T04:28:11;14.25;;;8.25;;
68989;SDS011;56046;47.270;11.368;2023-11-21T04:30:36;14.00;;;7.47;;
68989;SDS011;56046;47.270;11.368;2023-11-21T04:33:02;14.03;;;8.00;;
68989;SDS011;56046;47.270;11.368;2023-11-21T04:35:28;14.27;;;7.90;;
68989;SDS011;56046;47.270;11.368;2023-11-21T04:37:53;14.90;;;8.07;;
68989;SDS011;56046;47.270;11.368;2023-11-21T04:40:18;16.05;;;8.65;;
68989;SDS011;56046;47.270;11.368;2023-11-21T04:42:45;17.92;;;8.32;;
68989;SDS011;56046;47.270;11.368;2023-11-21T04:45:11;18.00;;;9.57;;
68989;SDS011;56046;47.270;11.368;2023-11-21T04:47:37;21.90;;;10.00;;
68989;SDS011;56046;47.270;11.368;2023-11-21T04:50:02;19.93;;;9.77;;
68989;SDS011;56046;47.270;11.368;2023-11-21T04:52:28;20.02;;;10.38;;
68989;SDS011;56046;47.270;11.368;2023-11-21T04:54:53;17.93;;;8.93;;
68989;SDS011;56046;47.270;11.368;2023-11-21T04:57:19;15.35;;;8.30;;
68989;SDS011;56046;47.270;11.368;2023-11-21T04:59:45;12.47;;;7.03;;
68989;SDS011;56046;47.270;11.368;2023-11-21T05:02:10;11.47;;;6.70;;
68989;SDS011;56046;47.270;11.368;2023-11-21T05:04:35;14.27;;;6.70;;
68989;SDS011;56046;47.270;11.368;2023-11-21T05:07:00;11.40;;;5.97;;
68989;SDS011;56046;47.270;11.368;2023-11-21T05:09:26;15.73;;;8.53;;
68989;SDS011;56046;47.270;11.368;2023-11-21T05:11:53;17.08;;;9.20;;
68989;SDS011;56046;47.270;11.368;2023-11-21T05:14:19;14.35;;;8.25;;
68989;SDS011;56046;47.270;11.368;2023-11-21T05:16:44;14.37;;;8.60;;
68989;SDS011;56046;47.270;11.368;2023-11-21T05:19:09;17.33;;;8.33;;
68989;SDS011;56046;47.270;11.368;2023-11-21T05:21:35;16.50;;;8.10;;
68989;SDS011;56046;47.270;11.368;2023-11-21T05:24:01;14.82;;;8.43;;
68989;SDS011;56046;47.270;11.368;2023-11-21T05:26:26;15.20;;;7.60;;
68989;SDS011;56046;47.270;11.368;2023-11-21T05:28:51;13.80;;;7.77;;
68989;SDS011;56046;47.270;11.368;2023-11-21T05:31:17;13.87;;;7.60;;
68989;SDS011;56046;47.270;11.368;2023-11-21T05:33:42;12.83;;;7.20;;
68989;SDS011;56046;47.270;11.368;2023-11-21T05:36:07;15.47;;;8.17;;
68989;SDS011;56046;47.270;11.368;2023-11-21T05:38:33;13.98;;;8.48;;
68989;SDS011;56046;47.270;11.368;2023-11-21T05:40:58;14.83;;;7.77;;
68989;SDS011;56046;47.270;11.368;2023-11-21T05:43:24;15.07;;;8.50;;
68989;SDS011;56046;47.270;11.368;2023-11-21T05:45:49;21.17;;;9.30;;
68989;SDS011;56046;47.270;11.368;2023-11-21T05:48:14;16.83;;;8.63;;
68989;SDS011;56046;47.270;11.368;2023-11-21T05:50:40;15.55;;;8.25;;
68989;SDS011;56046;47.270;11.368;2023-11-21T05:53:06;13.27;;;6.97;;
68989;SDS011;56046;47.270;11.368;2023-11-21T05:55:32;12.73;;;6.65;;
68989;SDS011;56046;47.270;11.368;2023-11-21T05:57:57;12.47;;;6.93;;
68989;SDS011;56046;47.270;11.368;2023-11-21T06:00:22;14.23;;;7.03;;
68989;SDS011;56046;47.270;11.368;2023-11-21T06:02:51;12.53;;;7.17;;
68989;SDS011;56046;47.270;11.368;2023-11-21T06:05:18;16.42;;;7.25;;
68989;SDS011;56046;47.270;11.368;2023-11-21T06:07:43;15.40;;;8.07;;
68989;SDS011;56046;47.270;11.368;2023-11-21T06:10:10;16.15;;;8.73;;
68989;SDS011;56046;47.270;11.368;2023-11-21T06:12:37;19.73;;;9.15;;
68989;SDS011;56046;47.270;11.368;2023-11-21T06:15:03;15.25;;;8.50;;
68989;SDS011;56046;47.270;11.368;2023-11-21T06:17:30;15.40;;;8.30;;
68989;SDS011;56046;47.270;11.368;2023-11-21T06:19:55;14.98;;;8.00;;
68989;SDS011;56046;47.270;11.368;2023-11-21T06:22:20;15.47;;;8.17;;
68989;SDS011;56046;47.270;11.368;2023-11-21T06:24:46;15.50;;;8.23;;
68989;SDS011;56046;47.270;11.368;2023-11-21T06:27:11;15.20;;;7.70;;
68989;SDS011;56046;47.270;11.368;2023-11-21T06:29:36;16.03;;;8.10;;
68989;SDS011;56046;47.270;11.368;2023-11-21T06:32:02;15.00;;;8.03;;
68989;SDS011;56046;47.270;11.368;2023-11-21T06:34:30;13.45;;;8.05;;
68989;SDS011;56046;47.270;11.368;2023-11-21T06:36:55;14.63;;;8.03;;
68989;SDS011;56046;47.270;11.368;2023-11-21T06:39:21;14.05;;;8.80;;
68989;SDS011;56046;47.270;11.368;2023-11-21T06:41:48;17.77;;;9.60;;
68989;SDS011;56046;47.270;11.368;2023-11-21T06:44:13;18.83;;;9.82;;
68989;SDS011;56046;47.270;11.368;2023-11-21T06:46:38;15.57;;;9.10;;
68989;SDS011;56046;47.270;11.368;2023-11-21T06:49:07;13.70;;;7.50;;
68989;SDS011;56046;47.270;11.368;2023-11-21T06:51:32;13.63;;;6.57;;
68989;SDS011;56046;47.270;11.368;2023-11-21T06:53:57;15.30;;;7.07;;
68989;SDS011;56046;47.270;11.368;2023-11-21T06:56:23;16.40;;;7.43;;
68989;SDS011;56046;47.270;11.368;2023-11-21T06:58:48;14.83;;;7.87;;
68989;SDS011;56046;47.270;11.368;2023-11-21T07:01:14;15.83;;;9.50;;
68989;SDS011;56046;47.270;11.368;2023-11-21T07:03:40;16.23;;;10.20;;
68989;SDS011;56046;47.270;11.368;2023-11-21T07:06:06;19.50;;;10.88;;
68989;SDS011;56046;47.270;11.368;2023-11-21T07:08:32;17.93;;;9.63;;
68989;SDS011;56046;47.270;11.368;2023-11-21T07:10:57;15.13;;;8.87;;
68989;SDS011;56046;47.270;11.368;2023-11-21T07:13:23;16.77;;;10.17;;
68989;SDS011;56046;47.270;11.368;2023-11-21T07:15:48;14.87;;;9.10;;
68989;SDS011;56046;47.270;11.368;2023-11-21T07:18:14;14.85;;;8.20;;
68989;SDS011;56046;47.270;11.368;2023-11-21T07:20:39;16.03;;;8.70;;
68989;SDS011;56046;47.270;11.368;2023-11-21T07:23:04;13.50;;;8.57;;
68989;SDS011;56046;47.270;11.368;2023-11-21T07:25:30;13.75;;;8.45;;
68989;SDS011;56046;47.270;11.368;2023-11-21T07:27:56;14.13;;;8.80;;
68989;SDS011;56046;47.270;11.368;2023-11-21T07:30:22;16.17;;;7.87;;
68989;SDS011;56046;47.270;11.368;2023-11-21T07:32:47;13.50;;;7.70;;
68989;SDS011;56046;47.270;11.368;2023-11-21T07:35:13;14.20;;;7.23;;
68989;SDS011;56046;47.270;11.368;2023-11-21T07:37:38;14.73;;;7.73;;
68989;SDS011;56046;47.270;11.368;2023-11-21T07:40:03;12.13;;;7.35;;
68989;SDS011;56046;47.270;11.368;2023-11-21T07:42:29;12.37;;;6.87;;
68989;SDS011;56046;47.270;11.368;2023-11-21T07:44:54;10.63;;;6.23;;
68989;SDS011;56046;47.270;11.368;2023-11-21T07:47:20;13.77;;;7.03;;
68989;SDS011;56046;47.270;11.368;2023-11-21T07:49:45;13.20;;;6.50;;
68989;SDS011;56046;47.270;11.368;2023-11-21T07:52:11;13.98;;;8.50;;
68989;SDS011;56046;47.270;11.368;2023-11-21T07:54:37;12.53;;;7.43;;
68989;SDS011;56046;47.270;11.368;2023-11-21T07:57:03;9.95;;;6.07;;
68989;SDS011;56046;47.270;11.368;2023-11-21T07:59:29;13.13;;;7.40;;
68989;SDS011;56046;47.270;11.368;2023-11-21T08:01:54;12.57;;;6.53;;
68989;SDS011;56046;47.270;11.368;2023-11-21T08:04:20;11.50;;;6.23;;
68989;SDS011;56046;47.270;11.368;2023-11-21T08:06:45;11.67;;;5.90;;
68989;SDS011;56046;47.270;11.368;2023-11-21T08:09:10;11.90;;;6.80;;
68989;SDS011;56046;47.270;11.368;2023-11-21T08:11:37;11.95;;;6.28;;
68989;SDS011;56046;47.270;11.368;2023-11-21T08:14:04;12.40;;;6.72;;
68989;SDS011;56046;47.270;11.368;2023-11-21T08:16:30;13.38;;;7.93;;
68989;SDS011;56046;47.270;11.368;2023-11-21T08:18:55;16.47;;;8.47;;
68989;SDS011;56046;47.270;11.368;2023-11-21T08:21:20;16.40;;;9.37;;
68989;SDS011;56046;47.270;11.368;2023-11-21T08:23:46;17.57;;;8.60;;
68989;SDS011;56046;47.270;11.368;2023-11-21T08:26:12;13.30;;;7.82;;
68989;SDS011;56046;47.270;11.368;2023-11-21T08:28:38;13.82;;;7.45;;
68989;SDS011;56046;47.270;11.368;2023-11-21T08:31:03;18.83;;;8.40;;
68989;SDS011;56046;47.270;11.368;2023-11-21T08:33:29;19.27;;;8.13;;
68989;SDS011;56046;47.270;11.368;2023-11-21T08:35:54;15.07;;;7.23;;
68989;SDS011;56046;47.270;11.368;2023-11-21T08:38:20;14.80;;;8.20;;
68989;SDS011;56046;47.270;11.368;2023-11-21T08:40:45;11.97;;;6.70;;
68989;SDS011;56046;47.270;11.368;2023-11-21T08:43:10;11.00;;;6.35;;
68989;SDS011;56046;47.270;11.368;2023-11-21T08:45:37;12.33;;;6.73;;
68989;SDS011;56046;47.270;11.368;2023-11-21T08:48:02;10.33;;;6.40;;
68989;SDS011;56046;47.270;11.368;2023-11-21T08:50:27;11.05;;;6.68;;
68989;SDS011;56046;47.270;11.368;2023-11-21T08:52:53;11.73;;;7.30;;
68989;SDS011;56046;47.270;11.368;2023-11-21T08:55:18;11.70;;;6.63;;
68989;SDS011;56046;47.270;11.368;2023-11-21T08:57:45;11.57;;;6.38;;
68989;SDS011;56046;47.270;11.368;2023-11-21T09:00:11;11.25;;;6.57;;
68989;SDS011;56046;47.270;11.368;2023-11-21T09:02:37;10.03;;;6.13;;
68989;SDS011;56046;47.270;11.368;2023-11-21T09:05:04;12.38;;;6.65;;
68989;SDS011;56046;47.270;11.368;2023-11-21T09:07:29;8.98;;;5.75;;
68989;SDS011;56046;47.270;11.368;2023-11-21T09:09:55;11.50;;;6.50;;
68989;SDS011;56046;47.270;11.368;2023-11-21T09:12:20;10.23;;;5.77;;
68989;SDS011;56046;47.270;11.368;2023-11-21T09:14:46;12.00;;;6.40;;
68989;SDS011;56046;47.270;11.368;2023-11-21T09:17:11;10.70;;;6.43;;
68989;SDS011;56046;47.270;11.368;2023-11-21T09:19:42;13.10;;;6.33;;
68989;SDS011;56046;47.270;11.368;2023-11-21T09:22:14;11.90;;;7.90;;
68989;SDS011;56046;47.270;11.368;2023-11-21T09:24:40;12.43;;;7.00;;
68989;SDS011;56046;47.270;11.368;2023-11-21T09:27:05;12.50;;;6.80;;
68989;SDS011;56046;47.270;11.368;2023-11-21T09:29:30;11.40;;;6.90;;
68989;SDS011;56046;47.270;11.368;2023-11-21T09:31:56;10.53;;;6.07;;
68989;SDS011;56046;47.270;11.368;2023-11-21T09:34:24;11.77;;;6.93;;
68989;SDS011;56046;47.270;11.368;2023-11-21T09:36:50;13.77;;;7.32;;
68989;SDS011;56046;47.270;11.368;2023-11-21T09:39:15;13.77;;;7.73;;
68989;SDS011;56046;47.270;11.368;2023-11-21T09:41:46;11.55;;;7.22;;
68989;SDS011;56046;47.270;11.368;2023-11-21T09:44:13;11.98;;;7.43;;
68989;SDS011;56046;47.270;11.368;2023-11-21T09:46:40;12.20;;;7.17;;
68989;SDS011;56046;47.270;11.368;2023-11-21T09:49:06;11.07;;;6.93;;
68989;SDS011;56046;47.270;11.368;2023-11-21T09:51:33;11.00;;;6.65;;
68989;SDS011;56046;47.270;11.368;2023-11-21T09:54:03;10.85;;;6.88;;
68989;SDS011;56046;47.270;11.368;2023-11-21T09:56:32;11.60;;;7.38;;
68989;SDS011;56046;47.270;11.368;2023-11-21T09:58:57;11.43;;;6.60;;
68989;SDS011;56046;47.270;11.368;2023-11-21T10:01:28;9.60;;;6.05;;
68989;SDS011;56046;47.270;11.368;2023-11-21T10:03:54;10.93;;;6.30;;
68989;SDS011;56046;47.270;11.368;2023-11-21T10:06:22;10.27;;;5.95;;
68989;SDS011;56046;47.270;11.368;2023-11-21T10:08:48;10.80;;;5.68;;
68989;SDS011;56046;47.270;11.368;2023-11-21T10:11:15;8.65;;;5.63;;
68989;SDS011;56046;47.270;11.368;2023-11-21T10:13:43;10.67;;;6.30;;
68989;SDS011;56046;47.270;11.368;2023-11-21T10:16:09;10.05;;;5.95;;
68989;SDS011;56046;47.270;11.368;2023-11-21T10:18:37;9.80;;;6.15;;
68989;SDS011;56046;47.270;11.368;2023-11-21T10:21:04;10.90;;;6.00;;
68989;SDS011;56046;47.270;11.368;2023-11-21T10:23:31;9.25;;;6.15;;
68989;SDS011;56046;47.270;11.368;2023-11-21T10:25:56;9.87;;;5.93;;
68989;SDS011;56046;47.270;11.368;2023-11-21T10:28:24;10.10;;;5.97;;
68989;SDS011;56046;47.270;11.368;2023-11-21T10:30:49;10.60;;;5.67;;
68989;SDS011;56046;47.270;11.368;2023-11-21T10:33:14;12.10;;;6.07;;
68989;SDS011;56046;47.270;11.368;2023-11-21T10:35:47;10.53;;;5.70;;
68989;SDS011;56046;47.270;11.368;2023-11-21T10:38:16;13.40;;;5.80;;
68989;SDS011;56046;47.270;11.368;2023-11-21T10:40:41;9.30;;;5.78;;
68989;SDS011;56046;47.270;11.368;2023-11-21T10:43:07;12.60;;;5.60;;
68989;SDS011;56046;47.270;11.368;2023-11-21T10:45:39;10.67;;;6.43;;
68989;SDS011;56046;47.270;11.368;2023-11-21T10:48:07;10.98;;;5.75;;
68989;SDS011;56046;47.270;11.368;2023-11-21T10:50:34;8.85;;;5.20;;
68989;SDS011;56046;47.270;11.368;2023-11-21T10:53:01;10.20;;;5.40;;
68989;SDS011;56046;47.270;11.368;2023-11-21T10:55:27;10.75;;;6.07;;
68989;SDS011;56046;47.270;11.368;2023-11-21T10:57:52;9.23;;;5.73;;
68989;SDS011;56046;47.270;11.368;2023-11-21T11:00:18;9.03;;;5.20;;
68989;SDS011;56046;47.270;11.368;2023-11-21T11:02:46;9.23;;;5.80;;
68989;SDS011;56046;47.270;11.368;2023-11-21T11:05:12;12.27;;;6.35;;
68989;SDS011;56046;47.270;11.368;2023-11-21T11:07:38;9.50;;;5.88;;
68989;SDS011;56046;47.270;11.368;2023-11-21T11:10:06;9.47;;;5.33;;
68989;SDS011;56046;47.270;11.368;2023-11-21T11:12:33;9.88;;;5.90;;
68989;SDS011;56046;47.270;11.368;2023-11-21T11:14:58;10.83;;;5.97;;
68989;SDS011;56046;47.270;11.368;2023-11-21T11:17:25;9.38;;;5.72;;
68989;SDS011;56046;47.270;11.368;2023-11-21T11:19:50;11.20;;;6.53;;
68989;SDS011;56046;47.270;11.368;2023-11-21T11:27:21;9.52;;;5.97;;
68989;SDS011;56046;47.270;11.368;2023-11-21T11:37:58;12.98;;;7.38;;
68989;SDS011;56046;47.270;11.368;2023-11-21T11:40:25;10.70;;;6.30;;
68989;SDS011;56046;47.270;11.368;2023-11-21T11:42:57;10.93;;;6.53;;
68989;SDS011;56046;47.270;11.368;2023-11-21T11:45:23;9.50;;;6.20;;
68989;SDS011;56046;47.270;11.368;2023-11-21T11:47:49;11.80;;;6.87;;
68989;SDS011;56046;47.270;11.368;2023-11-21T11:50:21;10.65;;;6.10;;
68989;SDS011;56046;47.270;11.368;2023-11-21T11:52:50;10.63;;;6.07;;
68989;SDS011;56046;47.270;11.368;2023-11-21T11:55:17;10.05;;;6.32;;
68989;SDS011;56046;47.270;11.368;2023-11-21T11:57:47;11.75;;;6.15;;
68989;SDS011;56046;47.270;11.368;2023-11-21T12:00:13;11.13;;;6.30;;
68989;SDS011;56046;47.270;11.368;2023-11-21T12:02:41;10.30;;;5.97;;
68989;SDS011;56046;47.270;11.368;2023-11-21T12:05:12;10.37;;;6.47;;
68989;SDS011;56046;47.270;11.368;2023-11-21T12:07:48;10.20;;;5.57;;
68989;SDS011;56046;47.270;11.368;2023-11-21T12:10:17;11.23;;;6.22;;
68989;SDS011;56046;47.270;11.368;2023-11-21T12:12:43;10.57;;;5.82;;
68989;SDS011;56046;47.270;11.368;2023-11-21T12:15:09;9.90;;;5.82;;
68989;SDS011;56046;47.270;11.368;2023-11-21T12:17:36;11.40;;;6.10;;
68989;SDS011;56046;47.270;11.368;2023-11-21T12:20:02;10.68;;;5.97;;
68989;SDS011;56046;47.270;11.368;2023-11-21T12:22:29;9.45;;;6.03;;
68989;SDS011;56046;47.270;11.368;2023-11-21T12:24:55;9.73;;;5.70;;
68989;SDS011;56046;47.270;11.368;2023-11-21T12:27:21;10.73;;;5.93;;
68989;SDS011;56046;47.270;11.368;2023-11-21T12:29:46;9.60;;;5.93;;
68989;SDS011;56046;47.270;11.368;2023-11-21T12:32:11;9.87;;;5.53;;
68989;SDS011;56046;47.270;11.368;2023-11-21T12:34:36;10.17;;;5.47;;
68989;SDS011;56046;47.270;11.368;2023-11-21T12:37:04;14.30;;;7.32;;
68989;SDS011;56046;47.270;11.368;2023-11-21T12:39:29;11.82;;;7.30;;
68989;SDS011;56046;47.270;11.368;2023-11-21T12:41:55;13.63;;;7.40;;
68989;SDS011;56046;47.270;11.368;2023-11-21T12:44:20;15.20;;;7.80;;
68989;SDS011;56046;47.270;11.368;2023-11-21T12:46:49;11.10;;;5.67;;
68989;SDS011;56046;47.270;11.368;2023-11-21T12:49:14;9.73;;;5.60;;
68989;SDS011;56046;47.270;11.368;2023-11-21T12:51:43;10.53;;;5.70;;
68989;SDS011;56046;47.270;11.368;2023-11-21T12:54:08;12.95;;;5.45;;
68989;SDS011;56046;47.270;11.368;2023-11-21T12:56:38;9.70;;;5.43;;
68989;SDS011;56046;47.270;11.368;2023-11-21T12:59:03;9.80;;;5.47;;
68989;SDS011;56046;47.270;11.368;2023-11-21T13:01:29;9.63;;;5.88;;
68989;SDS011;56046;47.270;11.368;2023-11-21T13:03:59;7.77;;;4.20;;
68989;SDS011;56046;47.270;11.368;2023-11-21T13:06:24;7.63;;;4.20;;
68989;SDS011;56046;47.270;11.368;2023-11-21T13:08:51;8.23;;;4.53;;
68989;SDS011;56046;47.270;11.368;2023-11-21T13:11:16;6.70;;;3.57;;
68989;SDS011;56046;47.270;11.368;2023-11-21T13:13:42;5.78;;;2.75;;
68989;SDS011;56046;47.270;11.368;2023-11-21T13:16:11;6.63;;;3.65;;
68989;SDS011;56046;47.270;11.368;2023-11-21T13:18:36;7.20;;;2.97;;
68989;SDS011;56046;47.270;11.368;2023-11-21T13:21:07;7.22;;;3.28;;
68989;SDS011;56046;47.270;11.368;2023-11-21T13:23:39;8.10;;;3.63;;
68989;SDS011;56046;47.270;11.368;2023-11-21T13:26:05;6.10;;;2.83;;
68989;SDS011;56046;47.270;11.368;2023-11-21T13:28:34;7.35;;;2.95;;
68989;SDS011;56046;47.270;11.368;2023-11-21T13:31:00;7.47;;;3.35;;
68989;SDS011;56046;47.270;11.368;2023-11-21T13:33:48;7.43;;;3.35;;
68989;SDS011;56046;47.270;11.368;2023-11-21T13:36:21;7.83;;;3.80;;
68989;SDS011;56046;47.270;11.368;2023-11-21T13:38:49;7.68;;;3.40;;
68989;SDS011;56046;47.270;11.368;2023-11-21T13:41:14;8.23;;;4.10;;
68989;SDS011;56046;47.270;11.368;2023-11-21T13:43:40;7.23;;;3.07;;
68989;SDS011;56046;47.270;11.368;2023-11-21T13:46:08;7.88;;;3.65;;
68989;SDS011;56046;47.270;11.368;2023-11-21T13:48:41;5.80;;;3.22;;
68989;SDS011;56046;47.270;11.368;2023-11-21T13:51:15;6.40;;;2.97;;
68989;SDS011;56046;47.270;11.368;2023-11-21T13:53:51;7.00;;;3.00;;
68989;SDS011;56046;47.270;11.368;2023-11-21T13:56:17;7.80;;;3.20;;
68989;SDS011;56046;47.270;11.368;2023-11-21T13:58:47;9.90;;;4.43;;
68989;SDS011;56046;47.270;11.368;2023-11-21T14:01:16;9.15;;;4.20;;
68989;SDS011;56046;47.270;11.368;2023-11-21T14:03:57;8.05;;;4.40;;
68989;SDS011;56046;47.270;11.368;2023-11-21T14:06:33;11.40;;;6.22;;
68989;SDS011;56046;47.270;11.368;2023-11-21T14:09:05;7.57;;;3.63;;
68989;SDS011;56046;47.270;11.368;2023-11-21T14:11:30;7.63;;;2.90;;
68989;SDS011;56046;47.270;11.368;2023-11-21T14:13:55;5.97;;;3.10;;
68989;SDS011;56046;47.270;11.368;2023-11-21T14:16:21;4.63;;;2.73;;
68989;SDS011;56046;47.270;11.368;2023-11-21T14:18:47;5.43;;;3.00;;
68989;SDS011;56046;47.270;11.368;2023-11-21T14:21:26;6.75;;;3.15;;
68989;SDS011;56046;47.270;11.368;2023-11-21T14:23:52;4.63;;;2.70;;
68989;SDS011;56046;47.270;11.368;2023-11-21T14:26:19;6.18;;;2.88;;
68989;SDS011;56046;47.270;11.368;2023-11-21T14:28:45;6.85;;;2.45;;
68989;SDS011;56046;47.270;11.368;2023-11-21T14:31:13;5.45;;;2.53;;